createdAt,value
2023-05-14T00:01:26.625Z,18.29
2023-05-14T00:06:28.155Z,18.42
2023-05-14T00:11:30.047Z,18.16
2023-05-14T00:16:31.687Z,18.58
2023-05-14T00:21:33.601Z,17.41
2023-05-14T00:26:35.208Z,16.92
2023-05-14T00:31:37.045Z,16.93
2023-05-14T00:36:38.657Z,16.75
2023-05-14T00:41:40.264Z,16.97
2023-05-14T00:46:43.789Z,16.63
2023-05-14T00:51:47.091Z,16.71
2023-05-14T00:56:49.198Z,16.87
2023-05-14T01:01:51.119Z,16.76
2023-05-14T01:07:34.777Z,16.48
2023-05-14T01:13:00.994Z,16.70
2023-05-14T01:18:08.742Z,16.17
2023-05-14T01:23:10.356Z,16.54
2023-05-14T01:28:29.636Z,16.12
2023-05-14T01:33:33.869Z,15.97
2023-05-14T01:38:36.448Z,15.90
2023-05-14T01:43:39.093Z,15.53
2023-05-14T01:48:41.484Z,15.45
2023-05-14T01:53:43.383Z,15.43
2023-05-14T01:58:44.913Z,15.59
2023-05-14T02:03:46.473Z,15.61
2023-05-14T02:08:50.798Z,15.72
2023-05-14T02:13:52.339Z,15.35
2023-05-14T02:18:54.011Z,15.28
2023-05-14T02:23:56.763Z,15.92
2023-05-14T02:28:58.353Z,15.86
2023-05-14T02:34:04.877Z,16.03
2023-05-14T02:39:07.573Z,16.21
2023-05-14T02:44:09.199Z,15.74
2023-05-14T02:49:10.936Z,16.16
2023-05-14T02:54:12.456Z,15.54
2023-05-14T02:59:16.727Z,15.44
2023-05-14T03:04:18.997Z,15.69
2023-05-14T03:09:20.698Z,15.25
2023-05-14T03:14:22.336Z,14.86
2023-05-14T03:19:23.941Z,15.29
2023-05-14T03:24:25.667Z,14.43
2023-05-14T03:29:27.372Z,14.62
2023-05-14T03:34:29.479Z,13.95
2023-05-14T03:39:31.192Z,15.32
2023-05-14T03:44:32.869Z,14.21
2023-05-14T03:49:34.424Z,14.48
2023-05-14T03:54:36.153Z,14.94
2023-05-14T03:59:37.842Z,14.86
2023-05-14T04:04:40.179Z,14.80
2023-05-14T04:09:41.797Z,14.55
2023-05-14T04:14:43.447Z,14.22
2023-05-14T04:19:45.293Z,14.17
2023-05-14T04:24:46.910Z,14.16
2023-05-14T04:29:49.364Z,15.18
2023-05-14T04:34:51.143Z,15.07
2023-05-14T04:39:52.677Z,15.15
2023-05-14T04:44:54.209Z,15.92
2023-05-14T04:49:55.906Z,15.64
2023-05-14T04:54:57.427Z,15.04
2023-05-14T04:59:58.939Z,15.13
2023-05-14T05:05:00.653Z,14.84
2023-05-14T05:10:02.895Z,15.31
2023-05-14T05:15:05.583Z,15.26
2023-05-14T05:20:09.732Z,15.67
2023-05-14T05:25:12.855Z,15.49
2023-05-14T05:30:14.508Z,15.66
2023-05-14T05:35:16.255Z,15.80
2023-05-14T05:40:18.102Z,16.36
2023-05-14T05:45:19.800Z,15.82
2023-05-14T05:50:21.491Z,16.07
2023-05-14T05:55:23.307Z,16.59
2023-05-14T06:00:25.752Z,17.17
2023-05-14T06:05:27.735Z,17.39
2023-05-14T06:10:29.470Z,17.35
2023-05-14T06:15:31.414Z,17.77
2023-05-14T06:20:35.517Z,17.36
2023-05-14T06:25:37.135Z,17.73
2023-05-14T06:30:38.714Z,17.81
2023-05-14T06:35:40.427Z,18.17
2023-05-14T06:40:42.099Z,18.60
2023-05-14T06:45:43.641Z,18.20
2023-05-14T06:50:46.180Z,18.11
2023-05-14T06:55:48.301Z,18.43
2023-05-14T07:00:49.980Z,19.03
2023-05-14T07:05:51.887Z,18.05
2023-05-14T07:10:53.577Z,17.95
2023-05-14T07:15:55.856Z,18.23
2023-05-14T07:20:57.461Z,18.49
2023-05-14T07:25:59.084Z,19.07
2023-05-14T07:31:00.761Z,20.73
2023-05-14T07:36:02.544Z,20.35
2023-05-14T07:41:06.334Z,20.77
2023-05-14T07:46:07.991Z,20.28
2023-05-14T07:51:09.612Z,20.25
2023-05-14T07:56:11.229Z,19.73
2023-05-14T08:01:12.901Z,21.02
2023-05-14T08:06:14.534Z,22.34
2023-05-14T08:11:16.293Z,21.73
2023-05-14T08:16:17.949Z,21.79
2023-05-14T08:21:19.570Z,23.44
2023-05-14T08:26:21.974Z,23.07
2023-05-14T08:31:23.789Z,25.00
2023-05-14T08:36:25.638Z,24.00
2023-05-14T08:41:27.479Z,24.30
2023-05-14T08:46:31.052Z,25.45
2023-05-14T08:51:33.390Z,25.21
2023-05-14T08:56:36.049Z,24.79
2023-05-14T09:01:42.101Z,24.27
2023-05-14T09:06:45.117Z,25.66
2023-05-14T09:11:47.726Z,25.87
2023-05-14T09:16:51.146Z,25.09
2023-05-14T09:21:56.265Z,25.94
2023-05-14T09:26:58.379Z,24.87
2023-05-14T09:32:04.976Z,26.62
2023-05-14T09:37:10.251Z,26.82
2023-05-14T09:42:11.841Z,25.70
2023-05-14T09:47:15.457Z,27.76
2023-05-14T09:52:19.394Z,25.84
2023-05-14T09:57:21.306Z,27.80
2023-05-14T10:02:25.719Z,28.10
2023-05-14T10:07:31.638Z,27.20
2023-05-14T10:12:36.770Z,26.63
2023-05-14T10:17:43.932Z,27.58
2023-05-14T10:22:46.534Z,26.44
2023-05-14T10:27:48.389Z,27.73
2023-05-14T10:33:05.911Z,27.70
2023-05-14T10:38:10.752Z,27.55
2023-05-14T10:43:12.576Z,26.85
2023-05-14T10:48:14.508Z,28.58
2023-05-14T10:53:16.213Z,26.71
2023-05-14T10:58:18.128Z,27.69
2023-05-14T11:03:21.175Z,27.82
2023-05-14T11:08:25.968Z,28.25
2023-05-14T11:13:28.955Z,28.00
2023-05-14T11:18:38.735Z,28.58
2023-05-14T11:23:40.870Z,29.56
2023-05-14T11:28:42.533Z,27.06
2023-05-14T11:33:44.553Z,26.66
2023-05-14T11:38:51.330Z,28.84
2023-05-14T11:43:53.156Z,27.29
2023-05-14T11:48:54.709Z,26.82
2023-05-14T11:53:58.924Z,28.35
2023-05-14T11:59:03.737Z,27.43
2023-05-14T12:04:05.672Z,28.10
2023-05-14T12:09:07.450Z,28.12
2023-05-14T12:14:16.965Z,28.71
2023-05-14T12:19:20.717Z,26.65
2023-05-14T12:24:25.487Z,28.22
2023-05-14T12:29:27.073Z,26.86
2023-05-14T12:34:28.635Z,26.42
2023-05-14T12:39:32.849Z,26.68
2023-05-14T12:44:34.487Z,26.81
2023-05-14T12:49:36.279Z,25.97
2023-05-14T12:54:42.284Z,26.11
2023-05-14T12:59:44.415Z,26.36
2023-05-14T13:04:45.961Z,25.93
2023-05-14T13:09:47.467Z,26.54
2023-05-14T13:14:49.028Z,25.97
2023-05-14T13:19:50.599Z,26.57
2023-05-14T13:24:52.158Z,26.00
2023-05-14T13:29:53.835Z,26.49
2023-05-14T13:34:55.752Z,25.99
2023-05-14T13:39:57.290Z,26.25
2023-05-14T13:45:00.179Z,26.31
2023-05-14T13:50:01.779Z,27.54
2023-05-14T13:55:03.875Z,27.97
2023-05-14T14:00:06.711Z,28.07
2023-05-14T14:05:08.783Z,27.15
2023-05-14T14:10:10.490Z,27.79
2023-05-14T14:15:12.087Z,27.59
2023-05-14T14:20:13.656Z,26.68
2023-05-14T14:25:15.392Z,26.63
2023-05-14T14:30:17.318Z,26.64
2023-05-14T14:35:20.022Z,26.31
2023-05-14T14:40:23.710Z,26.80
2023-05-14T14:45:25.614Z,26.21
2023-05-14T14:50:27.379Z,26.36
2023-05-14T14:55:28.967Z,26.41
2023-05-14T15:00:30.706Z,26.62
2023-05-14T15:05:32.335Z,26.71
2023-05-14T15:10:37.830Z,26.00
2023-05-14T15:15:39.539Z,26.16
2023-05-14T15:20:41.106Z,27.11
2023-05-14T15:25:42.731Z,26.51
2023-05-14T15:30:44.306Z,26.30
2023-05-14T15:35:46.133Z,26.90
2023-05-14T15:40:48.703Z,26.11
2023-05-14T15:45:50.476Z,25.52
2023-05-14T15:50:52.724Z,25.71
2023-05-14T15:55:54.481Z,25.82
2023-05-14T16:00:56.076Z,25.39
2023-05-14T16:05:57.630Z,25.43
2023-05-14T16:10:59.145Z,25.45
2023-05-14T16:16:01.428Z,25.54
2023-05-14T16:21:03.651Z,25.73
2023-05-14T16:26:06.036Z,25.88
2023-05-14T16:31:10.048Z,25.25
2023-05-14T16:36:11.805Z,26.71
2023-05-14T16:41:13.330Z,25.52
2023-05-14T16:46:15.137Z,26.17
2023-05-14T16:51:16.987Z,26.01
2023-05-14T16:56:18.563Z,25.47
2023-05-14T17:01:20.230Z,25.21
2023-05-14T17:06:23.758Z,26.04
2023-05-14T17:11:25.278Z,25.59
2023-05-14T17:16:27.181Z,26.02
2023-05-14T17:21:28.811Z,25.24
2023-05-14T17:26:33.096Z,25.27
2023-05-14T17:31:35.048Z,25.06
2023-05-14T17:36:36.690Z,24.99
2023-05-14T17:41:38.245Z,24.65
2023-05-14T17:46:41.561Z,24.67
2023-05-14T17:51:43.365Z,25.22
2023-05-14T17:56:45.108Z,25.02
2023-05-14T18:01:46.845Z,24.47
2023-05-14T18:06:48.424Z,24.77
2023-05-14T18:11:50.027Z,25.33
2023-05-14T18:16:51.704Z,24.94
2023-05-14T18:21:55.545Z,23.70
2023-05-14T18:26:57.262Z,24.34
2023-05-14T18:31:58.813Z,24.22
2023-05-14T18:37:00.485Z,23.31
2023-05-14T18:42:02.543Z,23.23
2023-05-14T18:47:04.367Z,23.18
2023-05-14T18:52:06.898Z,22.89
2023-05-14T18:57:08.401Z,21.84
2023-05-14T19:02:10.234Z,21.98
2023-05-14T19:07:11.925Z,21.85
2023-05-14T19:12:13.764Z,21.28
2023-05-14T19:17:16.131Z,21.50
2023-05-14T19:22:19.536Z,20.68
2023-05-14T19:27:21.102Z,20.80
2023-05-14T19:32:22.661Z,20.65
2023-05-14T19:37:24.384Z,20.37
2023-05-14T19:42:25.987Z,20.12
2023-05-14T19:47:28.675Z,20.41
2023-05-14T19:52:30.395Z,20.40
2023-05-14T19:57:31.969Z,19.98
2023-05-14T20:02:33.999Z,19.92
2023-05-14T20:07:37.773Z,19.76
2023-05-14T20:12:40.677Z,20.14
2023-05-14T20:17:42.313Z,19.88
2023-05-14T20:22:44.107Z,19.77
2023-05-14T20:27:45.730Z,19.86
2023-05-14T20:32:47.309Z,19.72
2023-05-14T20:37:49.493Z,19.41
2023-05-14T20:42:51.340Z,19.51
2023-05-14T20:47:52.931Z,20.04
2023-05-14T20:52:55.388Z,19.47
2023-05-14T20:57:56.907Z,19.65
2023-05-14T21:03:00.201Z,19.07
2023-05-14T21:08:01.975Z,19.20
2023-05-14T21:13:03.673Z,19.12
2023-05-14T21:18:05.401Z,19.01
2023-05-14T21:23:07.047Z,18.73
2023-05-14T21:28:08.585Z,18.85
2023-05-14T21:33:10.215Z,18.67
2023-05-14T21:38:11.878Z,19.05
2023-05-14T21:43:13.424Z,18.63
2023-05-14T21:48:15.129Z,18.19
2023-05-14T21:53:18.995Z,18.17
2023-05-14T21:58:21.208Z,18.53
2023-05-14T22:03:22.903Z,18.34
2023-05-14T22:08:24.545Z,17.82
2023-05-14T22:13:26.138Z,17.72
2023-05-14T22:18:27.702Z,17.28
2023-05-14T22:23:29.299Z,17.40
2023-05-14T22:28:31.001Z,17.44
2023-05-14T22:33:33.270Z,17.56
2023-05-14T22:38:35.181Z,17.79
2023-05-14T22:43:36.775Z,16.93
2023-05-14T22:48:38.362Z,17.26
2023-05-14T22:53:39.966Z,17.46
2023-05-14T22:58:41.580Z,17.51
2023-05-14T23:03:43.092Z,17.21
2023-05-14T23:08:44.703Z,17.37
2023-05-14T23:13:46.304Z,17.23
2023-05-14T23:18:48.018Z,17.11
2023-05-14T23:23:52.568Z,17.21
2023-05-14T23:28:54.169Z,17.51
2023-05-14T23:33:56.990Z,17.58
2023-05-14T23:38:59.377Z,17.54
2023-05-14T23:44:00.913Z,17.56
2023-05-14T23:49:02.730Z,17.29
2023-05-14T23:54:04.752Z,17.13
2023-05-14T23:59:06.531Z,17.24
